Bronston, Kentucky
Current Conditions -  °F | °C
As of 3:35 AM on Saturday 29 Nov 2014 (Local Time) from KSME Reporting Station
Clear Clear  
Wind Chill: 32°   Ceiling: Unl
Heat Index: 36°   Visibility: 10mi
Dew Point: 21°   Wind: 5mph
Humidity: 56%   Direction: 190°S
Pressure: 30.16"   Gusts: NA
Location:  36.99°N, 84.62°W
Report Text: KSME 290835Z AUTO 19004KT 10SM CLR 02/M06 A3016 RMK AO2
Loading
Personal Weather Stations






























Interactive Weather Map New forecast layout! Learn more

10-Day Weather Forecast

Advertisements
Track Severe Weather on mobile